createdAt,value
2023-05-04T05:03:07.490Z,37.95
2023-05-04T05:04:08.466Z,37.91
2023-05-04T05:05:08.684Z,37.90
2023-05-04T05:06:08.533Z,37.87
2023-05-04T05:07:08.576Z,37.87
2023-05-04T05:08:08.560Z,37.85
2023-05-04T05:09:08.599Z,37.86
2023-05-04T05:10:07.872Z,37.84
2023-05-04T05:11:08.703Z,37.81
2023-05-04T05:12:08.701Z,37.77
2023-05-04T05:13:08.859Z,37.73
2023-05-04T05:14:07.752Z,37.74
2023-05-04T05:15:08.739Z,37.70
2023-05-04T05:16:07.779Z,37.71
2023-05-04T05:17:07.781Z,37.72
2023-05-04T05:18:07.812Z,37.68
2023-05-04T05:19:07.922Z,37.63
2023-05-04T05:20:07.839Z,37.68
2023-05-04T05:21:08.769Z,37.63
2023-05-04T05:22:07.752Z,37.61
2023-05-04T05:23:08.749Z,37.54
2023-05-04T05:24:07.757Z,37.58
2023-05-04T05:25:08.743Z,37.58
2023-05-04T05:26:07.736Z,37.59
2023-05-04T05:27:08.728Z,37.39
2023-05-04T05:28:07.731Z,37.50
2023-05-04T05:29:07.730Z,37.58
2023-05-04T05:30:08.748Z,37.58
2023-05-04T05:31:07.845Z,37.62
2023-05-04T05:32:07.713Z,37.53
2023-05-04T05:33:08.770Z,37.48
2023-05-04T05:34:07.719Z,37.52
2023-05-04T05:35:08.772Z,37.49
2023-05-04T05:36:08.768Z,37.53
2023-05-04T05:37:08.796Z,37.53
2023-05-04T05:38:08.818Z,37.49
2023-05-04T05:39:08.858Z,37.49
2023-05-04T05:40:08.203Z,37.52
2023-05-04T05:41:07.884Z,37.48
2023-05-04T05:42:07.909Z,37.52
2023-05-04T05:43:07.954Z,37.50
2023-05-04T05:44:09.709Z,37.52
2023-05-04T05:45:07.976Z,37.59
2023-05-04T05:46:08.959Z,37.51
2023-05-04T05:47:08.932Z,37.50
2023-05-04T05:48:08.967Z,37.52
2023-05-04T05:49:07.931Z,37.51
2023-05-04T05:50:08.910Z,37.54
2023-05-04T05:51:08.915Z,37.50
2023-05-04T05:52:08.880Z,37.50
2023-05-04T05:53:08.891Z,37.50
2023-05-04T05:54:08.868Z,37.51
2023-05-04T05:55:07.870Z,37.52
2023-05-04T05:56:08.885Z,37.47
2023-05-04T05:57:07.850Z,37.57
2023-05-04T05:58:08.848Z,37.56
2023-05-04T05:59:07.836Z,37.50
2023-05-04T06:00:08.830Z,37.55
2023-05-04T06:01:07.823Z,37.55
2023-05-04T06:02:07.913Z,37.48
2023-05-04T06:03:07.900Z,37.47
2023-05-04T06:04:08.890Z,37.47
2023-05-04T06:05:08.812Z,37.51
2023-05-04T06:06:08.786Z,37.48
2023-05-04T06:07:07.836Z,37.55
2023-05-04T06:08:08.778Z,37.51
2023-05-04T06:09:07.786Z,37.57
2023-05-04T06:10:08.847Z,37.59
2023-05-04T06:11:07.760Z,37.69
2023-05-04T06:12:07.762Z,37.72
2023-05-04T06:13:07.777Z,37.70
2023-05-04T06:14:08.747Z,37.73
2023-05-04T06:15:08.739Z,37.76
2023-05-04T06:16:07.745Z,37.91
2023-05-04T06:17:07.719Z,38.42
2023-05-04T06:18:07.827Z,38.14
2023-05-04T06:19:07.704Z,38.01
2023-05-04T06:20:08.685Z,38.06
2023-05-04T06:21:08.705Z,38.20
2023-05-04T06:22:08.694Z,38.10
2023-05-04T06:23:07.697Z,38.20
2023-05-04T06:24:08.730Z,38.22
2023-05-04T06:25:08.353Z,38.28
2023-05-04T06:26:07.868Z,38.51
2023-05-04T06:27:08.022Z,38.60
2023-05-04T06:28:07.970Z,38.43
2023-05-04T06:29:08.027Z,38.67
2023-05-04T06:30:08.494Z,38.69
2023-05-04T06:31:09.247Z,38.65
2023-05-04T06:32:09.468Z,39.02
2023-05-04T06:33:08.334Z,38.73
2023-05-04T06:34:08.326Z,39.37
2023-05-04T06:35:08.373Z,39.14
2023-05-04T06:36:09.436Z,39.87
2023-05-04T06:37:08.496Z,39.91
2023-05-04T06:38:09.544Z,39.56
2023-05-04T06:39:09.609Z,39.83
2023-05-04T06:40:09.860Z,39.42
2023-05-04T06:41:09.708Z,39.40
2023-05-04T06:42:09.751Z,39.56
2023-05-04T06:43:08.834Z,39.29
2023-05-04T06:44:08.851Z,39.39
2023-05-04T06:45:09.929Z,40.20
2023-05-04T06:46:10.007Z,39.62
2023-05-04T06:47:09.062Z,39.77
2023-05-04T06:48:10.109Z,39.81
2023-05-04T06:49:10.127Z,39.50
2023-05-04T06:50:10.177Z,39.59
2023-05-04T06:51:10.228Z,39.76
2023-05-04T06:52:10.285Z,40.01
2023-05-04T06:53:09.336Z,39.94
2023-05-04T06:54:10.367Z,40.16
2023-05-04T06:55:09.497Z,40.21
2023-05-04T06:56:10.663Z,40.21
2023-05-04T06:57:09.516Z,40.33
2023-05-04T06:58:09.575Z,39.90
2023-05-04T06:59:10.596Z,40.44
2023-05-04T07:00:10.696Z,40.03
2023-05-04T07:01:09.729Z,40.09
2023-05-04T07:02:10.715Z,40.17
2023-05-04T07:03:10.831Z,40.57
2023-05-04T07:04:10.799Z,40.37
2023-05-04T07:05:09.838Z,40.30
2023-05-04T07:06:10.899Z,40.43
2023-05-04T07:07:10.900Z,40.28
2023-05-04T07:08:09.957Z,40.33
2023-05-04T07:09:10.985Z,41.19
2023-05-04T07:10:11.005Z,40.87
2023-05-04T07:11:11.196Z,40.45
2023-05-04T07:12:11.079Z,40.44
2023-05-04T07:13:10.199Z,40.67
2023-05-04T07:14:11.163Z,40.55
2023-05-04T07:15:11.194Z,40.65
2023-05-04T07:16:11.250Z,40.79
2023-05-04T07:17:10.319Z,40.79
2023-05-04T07:18:11.330Z,40.58
2023-05-04T07:19:11.352Z,40.89
2023-05-04T07:20:11.432Z,40.84
2023-05-04T07:22:11.452Z,40.65
2023-05-04T07:23:11.434Z,40.73
2023-05-04T07:24:11.435Z,40.61
2023-05-04T07:25:11.426Z,40.80
2023-05-04T07:26:11.445Z,40.94
2023-05-04T07:27:11.599Z,41.00
2023-05-04T07:28:11.406Z,40.99
2023-05-04T07:29:11.393Z,41.34
2023-05-04T07:30:10.396Z,41.28
2023-05-04T07:31:11.388Z,41.26
2023-05-04T07:32:11.522Z,41.33
2023-05-04T07:33:11.459Z,41.50
2023-05-04T07:34:10.367Z,41.31
2023-05-04T07:35:10.372Z,41.15
2023-05-04T07:36:11.351Z,41.36
2023-05-04T07:37:10.354Z,41.44
2023-05-04T07:38:10.325Z,41.33
2023-05-04T07:39:11.333Z,41.49
2023-05-04T07:40:11.316Z,41.60
2023-05-04T07:41:11.331Z,41.63
2023-05-04T07:42:11.334Z,41.90
2023-05-04T07:43:11.328Z,41.93
2023-05-04T07:44:11.283Z,42.04
2023-05-04T07:45:11.292Z,42.29
2023-05-04T07:46:11.318Z,42.27
2023-05-04T07:47:10.267Z,42.24
2023-05-04T07:48:11.326Z,41.96
2023-05-04T07:49:10.250Z,42.17
2023-05-04T07:50:11.253Z,42.22
2023-05-04T07:51:10.694Z,42.52
2023-05-04T07:52:10.335Z,42.12
2023-05-04T07:53:11.368Z,42.48
2023-05-04T07:54:10.423Z,42.50
2023-05-04T07:55:11.462Z,42.79
2023-05-04T07:56:10.563Z,42.72
2023-05-04T07:57:11.567Z,42.21
2023-05-04T07:58:10.626Z,42.58
2023-05-04T08:04:23.547Z,45.94
2023-05-04T08:05:23.479Z,44.90
2023-05-04T08:06:24.458Z,43.86
2023-05-04T08:07:24.457Z,43.62
2023-05-04T08:08:25.022Z,43.16
2023-05-04T08:09:24.487Z,42.68
2023-05-04T08:10:23.493Z,42.46
2023-05-04T08:11:24.436Z,42.14
2023-05-04T08:12:23.441Z,41.97
2023-05-04T08:13:24.432Z,41.62
2023-05-04T08:14:23.509Z,41.43
2023-05-04T08:15:24.408Z,41.28
2023-05-04T08:16:23.489Z,41.17
2023-05-04T08:17:23.440Z,40.99
2023-05-04T08:18:23.376Z,40.88
2023-05-04T08:19:23.374Z,40.82
2023-05-04T08:20:24.622Z,40.80
2023-05-04T08:21:24.366Z,40.40
2023-05-04T08:22:23.343Z,40.04
2023-05-04T08:23:24.361Z,40.21
2023-05-04T08:24:24.350Z,39.67
2023-05-04T08:25:24.327Z,39.98
2023-05-04T08:26:23.387Z,40.01
2023-05-04T08:27:24.422Z,39.78
2023-05-04T08:28:24.569Z,39.73
2023-05-04T08:29:23.583Z,39.67
2023-05-04T08:30:24.586Z,39.05
2023-05-04T08:31:24.685Z,39.50
2023-05-04T08:32:24.687Z,39.17
2023-05-04T08:33:24.722Z,39.11
2023-05-04T08:34:23.804Z,39.06
2023-05-04T08:35:24.837Z,39.16
2023-05-04T08:36:24.982Z,38.50
2023-05-04T08:37:23.951Z,39.08
2023-05-04T08:38:24.009Z,39.09
2023-05-04T08:39:24.060Z,39.01
2023-05-04T08:40:24.152Z,37.02
2023-05-04T08:41:24.176Z,38.46
2023-05-04T08:42:25.156Z,38.64
2023-05-04T08:43:25.259Z,38.84
2023-05-04T08:44:25.260Z,38.70
2023-05-04T08:45:25.334Z,38.70
2023-05-04T08:46:25.378Z,38.88
2023-05-04T08:47:25.449Z,38.87
2023-05-04T08:48:24.417Z,38.71
2023-05-04T08:49:25.433Z,37.75
2023-05-04T08:50:25.489Z,38.81
2023-05-04T08:51:24.581Z,39.02
2023-05-04T08:52:24.720Z,38.70
2023-05-04T08:53:24.594Z,38.36
2023-05-04T08:54:25.665Z,38.69
2023-05-04T08:55:25.702Z,38.82
2023-05-04T08:56:26.240Z,37.83
2023-05-04T08:57:24.781Z,37.94
2023-05-04T08:58:25.747Z,39.10
2023-05-04T08:59:25.781Z,38.53
2023-05-04T09:00:24.804Z,38.97
2023-05-04T09:01:25.935Z,39.03
2023-05-04T09:02:25.906Z,39.20
2023-05-04T09:03:24.993Z,39.14
2023-05-04T09:04:27.842Z,39.07
2023-05-04T09:05:24.937Z,38.77
2023-05-04T09:06:25.907Z,38.86
2023-05-04T09:07:24.897Z,38.84
2023-05-04T09:08:25.974Z,38.52
2023-05-04T09:09:25.980Z,38.67
2023-05-04T09:10:28.178Z,38.50
2023-05-04T09:11:25.868Z,37.93
2023-05-04T09:12:25.858Z,38.88
2023-05-04T09:13:25.848Z,38.81
2023-05-04T09:14:25.848Z,38.74
2023-05-04T09:15:24.826Z,38.70
2023-05-04T09:16:25.020Z,38.07
2023-05-04T09:17:26.269Z,38.61
2023-05-04T09:18:25.867Z,38.78
2023-05-04T09:19:25.798Z,38.49
2023-05-04T09:20:25.787Z,38.63
2023-05-04T09:21:25.867Z,38.61
2023-05-04T09:22:25.430Z,38.38
2023-05-04T09:23:25.798Z,38.47
2023-05-04T09:24:25.803Z,38.31
2023-05-04T09:25:25.772Z,38.67
2023-05-04T09:26:25.755Z,38.86
2023-05-04T09:27:25.801Z,38.79
2023-05-04T09:28:25.764Z,38.65
2023-05-04T09:29:25.901Z,38.56
2023-05-04T09:30:24.890Z,38.52
2023-05-04T09:31:25.124Z,38.16
2023-05-04T09:32:26.060Z,38.52
2023-05-04T09:33:26.025Z,38.42
2023-05-04T09:34:26.083Z,38.05
2023-05-04T09:35:32.413Z,38.20
2023-05-04T09:36:26.127Z,37.99
2023-05-04T09:37:25.163Z,38.16
2023-05-04T09:38:26.111Z,37.93
2023-05-04T09:39:25.105Z,38.39
2023-05-04T09:40:26.230Z,38.25
2023-05-04T09:41:26.090Z,38.39
2023-05-04T09:42:26.088Z,37.20
2023-05-04T09:43:25.096Z,38.03
2023-05-04T09:44:32.079Z,38.13
2023-05-04T09:45:26.057Z,38.16
2023-05-04T09:46:26.078Z,38.31
2023-05-04T09:47:26.252Z,38.46
2023-05-04T09:48:25.044Z,38.60
2023-05-04T09:49:25.085Z,38.66
2023-05-04T09:50:25.052Z,38.70
2023-05-04T09:51:25.015Z,38.54
2023-05-04T09:52:26.231Z,38.31
2023-05-04T09:53:26.023Z,38.28
2023-05-04T09:54:25.996Z,38.43
2023-05-04T09:55:25.989Z,38.48
2023-05-04T09:56:25.034Z,38.53
2023-05-04T09:57:25.008Z,38.66
2023-05-04T09:58:25.001Z,38.34
2023-05-04T09:59:25.955Z,38.57
2023-05-04T10:00:24.967Z,38.41
2023-05-04T10:01:24.997Z,37.82
2023-05-04T10:02:26.020Z,38.26
2023-05-04T10:03:25.998Z,38.64
2023-05-04T10:04:25.938Z,38.36
2023-05-04T10:05:25.950Z,37.46
2023-05-04T10:06:25.911Z,37.54
2023-05-04T10:07:25.914Z,37.75
2023-05-04T10:08:25.930Z,38.62
2023-05-04T10:09:25.893Z,38.67
2023-05-04T10:10:25.879Z,38.60
2023-05-04T10:11:24.872Z,38.76
2023-05-04T10:12:25.968Z,39.08
2023-05-04T10:13:25.857Z,39.42
2023-05-04T10:14:24.864Z,39.02
2023-05-04T10:15:24.932Z,38.59
2023-05-04T10:16:25.981Z,38.90
2023-05-04T10:17:25.041Z,37.72
2023-05-04T10:18:26.086Z,38.78
2023-05-04T10:19:25.086Z,38.55
2023-05-04T10:20:25.148Z,38.49
2023-05-04T10:21:26.183Z,38.80
2023-05-04T10:22:26.177Z,39.10
2023-05-04T10:23:26.196Z,38.22
2023-05-04T10:24:25.206Z,38.86
2023-05-04T10:25:26.232Z,38.92
2023-05-04T10:26:26.265Z,38.88
2023-05-04T10:27:25.326Z,38.50
2023-05-04T10:28:26.637Z,38.48
2023-05-04T10:29:26.392Z,38.85
2023-05-04T10:30:26.450Z,38.62
2023-05-04T10:31:26.534Z,39.01
2023-05-04T10:32:26.564Z,37.86
2023-05-04T10:33:26.520Z,36.94
2023-05-04T10:34:26.517Z,37.02
2023-05-04T10:35:26.561Z,37.85
2023-05-04T10:36:26.558Z,37.78
2023-05-04T10:37:25.575Z,38.04
2023-05-04T10:38:25.581Z,38.17
2023-05-04T10:39:25.589Z,37.59
2023-05-04T10:40:25.620Z,38.16
2023-05-04T10:41:25.622Z,36.17
2023-05-04T10:42:26.779Z,37.34
2023-05-04T10:43:25.639Z,36.95
2023-05-04T10:44:26.759Z,37.45
2023-05-04T10:45:26.736Z,37.57
2023-05-04T10:46:25.701Z,37.66
2023-05-04T10:47:26.781Z,37.87
2023-05-04T10:48:25.708Z,37.84
2023-05-04T10:49:25.726Z,37.12
2023-05-04T10:50:26.758Z,36.35
2023-05-04T10:51:35.738Z,36.34
2023-05-04T10:52:26.779Z,36.27
2023-05-04T10:53:26.780Z,37.41
2023-05-04T10:54:26.776Z,38.00
2023-05-04T10:55:25.753Z,37.56
2023-05-04T10:56:25.771Z,36.64
2023-05-04T10:57:26.748Z,36.91
2023-05-04T10:58:26.720Z,37.27
2023-05-04T10:59:26.724Z,37.19
2023-05-04T11:00:26.776Z,36.62
2023-05-04T11:01:25.768Z,37.07
2023-05-04T11:02:25.765Z,37.46
2023-05-04T11:03:26.822Z,37.97
2023-05-04T11:04:25.697Z,37.39
2023-05-04T11:05:25.685Z,37.53
2023-05-04T11:06:26.679Z,37.77
2023-05-04T11:07:25.691Z,37.55
2023-05-04T11:08:25.664Z,37.44
2023-05-04T11:09:26.666Z,37.03
2023-05-04T11:10:26.649Z,36.11
2023-05-04T11:11:26.651Z,35.97
2023-05-04T11:12:26.704Z,36.61
2023-05-04T11:13:25.642Z,36.52
2023-05-04T11:14:26.623Z,36.78
2023-05-04T11:15:25.605Z,36.75
2023-05-04T11:16:25.704Z,36.54
2023-05-04T11:17:28.530Z,36.97
2023-05-04T11:18:26.676Z,36.36
2023-05-04T11:19:25.580Z,36.61
2023-05-04T11:20:26.625Z,35.86
2023-05-04T11:21:26.631Z,36.63
2023-05-04T11:22:25.638Z,36.05
2023-05-04T11:23:25.594Z,36.78
2023-05-04T11:24:25.580Z,35.50
2023-05-04T11:25:25.638Z,34.73
2023-05-04T11:26:25.521Z,36.33
2023-05-04T11:27:26.545Z,35.40
2023-05-04T11:28:25.563Z,36.04
2023-05-04T11:29:25.564Z,35.11
2023-05-04T11:30:26.594Z,35.98
2023-05-04T11:31:25.512Z,36.00
2023-05-04T11:32:26.767Z,36.02
2023-05-04T11:33:25.468Z,35.09
2023-05-04T11:34:25.480Z,35.49
2023-05-04T11:35:25.459Z,35.62
2023-05-04T11:36:25.551Z,34.86
2023-05-04T11:37:26.821Z,35.43
2023-05-04T11:38:25.504Z,34.91
2023-05-04T11:39:26.521Z,35.10
2023-05-04T11:40:25.545Z,35.46
2023-05-04T11:41:25.437Z,34.50
2023-05-04T11:42:25.451Z,35.11
2023-05-04T11:43:25.404Z,34.68
2023-05-04T11:44:26.446Z,35.24
2023-05-04T11:45:26.452Z,35.29
2023-05-04T11:46:26.450Z,35.24
2023-05-04T11:47:25.478Z,34.96
2023-05-04T11:48:25.441Z,34.85
2023-05-04T11:49:25.387Z,35.42
2023-05-04T11:50:26.429Z,35.38
2023-05-04T11:51:25.430Z,36.39
2023-05-04T11:52:25.362Z,36.68
2023-05-04T11:53:26.401Z,35.53
2023-05-04T11:54:26.405Z,36.24
2023-05-04T11:55:26.317Z,36.23
2023-05-04T11:56:25.316Z,35.74
2023-05-04T11:57:26.355Z,35.75
2023-05-04T11:58:25.376Z,36.38
2023-05-04T11:59:25.369Z,37.02
2023-05-04T12:00:25.276Z,36.61
2023-05-04T12:01:26.329Z,36.41
2023-05-04T12:02:25.407Z,35.30
2023-05-04T12:03:35.464Z,34.83
2023-05-04T12:04:26.407Z,34.41
2023-05-04T12:05:25.335Z,34.98
2023-05-04T12:06:26.279Z,35.57
2023-05-04T12:07:25.291Z,36.13
2023-05-04T12:08:26.332Z,35.84
2023-05-04T12:09:25.209Z,36.59
2023-05-04T12:10:25.291Z,36.19
2023-05-04T12:11:25.245Z,34.71
2023-05-04T12:12:25.285Z,35.07
2023-05-04T12:13:25.297Z,34.53
2023-05-04T12:14:26.175Z,35.15
2023-05-04T12:15:25.176Z,33.47
2023-05-04T12:16:25.231Z,34.57
2023-05-04T12:17:26.293Z,34.46
2023-05-04T12:18:25.150Z,33.90
2023-05-04T12:19:25.186Z,33.91
2023-05-04T12:20:26.162Z,32.67
2023-05-04T12:21:25.172Z,33.90
2023-05-04T12:22:26.210Z,32.53
2023-05-04T12:23:26.153Z,32.62
2023-05-04T12:24:25.165Z,32.89
2023-05-04T12:25:25.153Z,32.30
2023-05-04T12:26:26.107Z,31.64
2023-05-04T12:27:25.092Z,32.11
2023-05-04T12:28:26.173Z,32.34
2023-05-04T12:29:25.079Z,31.86
2023-05-04T12:30:25.124Z,32.28
2023-05-04T12:31:25.750Z,31.99
2023-05-04T12:32:25.118Z,31.83
2023-05-04T12:33:26.175Z,31.05
2023-05-04T12:34:25.087Z,31.19
2023-05-04T12:35:25.106Z,29.78
2023-05-04T12:36:25.115Z,30.61
2023-05-04T12:37:26.115Z,30.75
2023-05-04T12:38:25.113Z,30.92
2023-05-04T12:39:25.080Z,31.43
2023-05-04T12:40:28.757Z,30.17
2023-05-04T12:41:25.068Z,30.24
2023-05-04T12:42:25.060Z,31.06
2023-05-04T12:43:25.060Z,29.60
2023-05-04T12:44:24.963Z,30.08
2023-05-04T12:45:26.011Z,30.87
2023-05-04T12:46:25.073Z,31.20
2023-05-04T12:47:25.093Z,31.29
2023-05-04T12:48:25.011Z,29.88
2023-05-04T12:49:25.018Z,30.09
2023-05-04T12:50:24.970Z,30.07
2023-05-04T12:51:24.983Z,29.66
2023-05-04T12:52:24.973Z,30.78
2023-05-04T12:53:26.118Z,29.26
2023-05-04T12:54:25.024Z,29.07
2023-05-04T12:55:25.536Z,29.34
2023-05-04T12:56:24.873Z,29.39
2023-05-04T12:57:25.956Z,28.38
2023-05-04T12:58:24.932Z,28.89
2023-05-04T12:59:24.921Z,28.73
2023-05-04T13:00:24.854Z,28.83
2023-05-04T13:01:24.899Z,28.55
2023-05-04T13:02:24.908Z,28.41
2023-05-04T13:03:24.998Z,28.98
2023-05-04T13:04:24.818Z,28.86
2023-05-04T13:05:25.812Z,28.83
2023-05-04T13:06:25.848Z,28.77
2023-05-04T13:07:24.853Z,28.78
2023-05-04T13:08:24.881Z,28.27
2023-05-04T13:09:24.816Z,28.36
2023-05-04T13:10:24.800Z,27.66
2023-05-04T13:11:24.810Z,28.85
2023-05-04T13:12:24.790Z,28.14
2023-05-04T13:13:24.839Z,28.01
2023-05-04T13:14:24.816Z,27.89
2023-05-04T13:15:24.784Z,28.23
2023-05-04T13:16:24.849Z,27.99
2023-05-04T13:17:24.755Z,27.50
2023-05-04T13:18:25.715Z,28.12
2023-05-04T13:19:24.760Z,27.62
2023-05-04T13:20:25.733Z,27.68
2023-05-04T13:21:24.687Z,27.90
2023-05-04T13:22:25.710Z,27.42
2023-05-04T13:23:25.911Z,27.20
2023-05-04T13:24:24.863Z,27.42
2023-05-04T13:25:24.661Z,27.74
2023-05-04T13:26:24.663Z,26.78
2023-05-04T13:27:25.723Z,27.36
2023-05-04T13:28:24.704Z,27.31
2023-05-04T13:29:25.794Z,27.63
2023-05-04T13:30:24.882Z,27.81
2023-05-04T13:31:24.879Z,27.65
2023-05-04T13:32:24.972Z,27.95
2023-05-04T13:33:30.166Z,27.76
2023-05-04T13:34:25.946Z,27.67
2023-05-04T13:35:24.922Z,27.98
2023-05-04T13:36:24.986Z,27.85
2023-05-04T13:37:24.907Z,28.02
2023-05-04T13:38:25.971Z,28.55
2023-05-04T13:39:24.892Z,27.89
2023-05-04T13:40:24.986Z,28.07
2023-05-04T13:41:24.911Z,28.23
2023-05-04T13:42:24.918Z,28.02
2023-05-04T13:43:24.936Z,28.15
2023-05-04T13:44:24.856Z,28.38
2023-05-04T13:45:25.914Z,28.36
2023-05-04T13:46:25.948Z,28.41
2023-05-04T13:47:24.886Z,28.31
2023-05-04T13:48:24.946Z,28.14
2023-05-04T13:49:24.883Z,28.60
2023-05-04T13:50:24.905Z,28.45
2023-05-04T13:51:26.033Z,28.15
2023-05-04T13:52:25.974Z,28.48
2023-05-04T13:53:26.111Z,28.19
2023-05-04T13:54:26.142Z,28.07
2023-05-04T13:55:25.168Z,28.16
2023-05-04T13:56:25.216Z,28.06
2023-05-04T13:57:25.187Z,28.56
2023-05-04T13:58:25.228Z,28.38
2023-05-04T13:59:25.176Z,28.12
2023-05-04T14:00:26.217Z,28.06
2023-05-04T14:01:26.305Z,28.27
2023-05-04T14:02:25.270Z,28.29
2023-05-04T14:03:25.284Z,27.91
2023-05-04T14:04:25.162Z,27.94
2023-05-04T14:05:26.199Z,27.89
2023-05-04T14:06:25.207Z,28.03
2023-05-04T14:07:25.291Z,27.89
2023-05-04T14:08:25.247Z,28.00
2023-05-04T14:09:25.353Z,28.28
2023-05-04T14:10:26.335Z,27.72
2023-05-04T14:11:26.428Z,28.04
2023-05-04T14:12:25.429Z,28.29
2023-05-04T14:13:26.376Z,28.45
2023-05-04T14:14:25.465Z,28.44
2023-05-04T14:15:25.532Z,28.18
2023-05-04T14:16:25.533Z,28.41
2023-05-04T14:17:25.547Z,28.23
2023-05-04T14:18:26.569Z,28.34
2023-05-04T14:19:26.654Z,28.38
2023-05-04T14:20:25.684Z,28.01
2023-05-04T14:21:26.642Z,28.36
2023-05-04T14:22:25.670Z,28.23
2023-05-04T14:23:25.824Z,28.00
2023-05-04T14:24:25.980Z,28.34
2023-05-04T14:25:25.876Z,28.12
2023-05-04T14:26:25.795Z,28.33
2023-05-04T14:27:25.880Z,28.37
2023-05-04T14:28:25.999Z,28.18
2023-05-04T14:29:26.018Z,28.47
2023-05-04T14:30:26.078Z,28.52
2023-05-04T14:31:26.176Z,28.54
2023-05-04T14:32:27.147Z,28.54
2023-05-04T14:33:26.086Z,28.62
2023-05-04T14:34:30.182Z,28.63
2023-05-04T14:35:26.128Z,28.66
2023-05-04T14:36:26.170Z,28.40
2023-05-04T14:37:27.135Z,28.50
2023-05-04T14:38:26.114Z,28.46
2023-05-04T14:39:26.173Z,28.53
2023-05-04T14:40:26.150Z,28.25
2023-05-04T14:41:26.046Z,28.40
2023-05-04T14:42:27.036Z,28.45
2023-05-04T14:43:27.027Z,27.79
2023-05-04T14:44:27.115Z,27.55
2023-05-04T14:45:26.181Z,27.63
2023-05-04T14:46:26.164Z,27.74
2023-05-04T14:47:27.078Z,27.49
2023-05-04T14:48:26.992Z,27.65
2023-05-04T14:49:36.748Z,27.64
2023-05-04T14:50:26.984Z,27.60
2023-05-04T14:51:26.041Z,27.82
2023-05-04T14:52:26.080Z,27.94
2023-05-04T14:53:26.042Z,27.97
2023-05-04T14:54:26.043Z,27.64
2023-05-04T14:55:27.050Z,27.88
2023-05-04T14:56:26.040Z,28.05
2023-05-04T14:57:26.004Z,28.22
2023-05-04T14:58:27.017Z,28.09
2023-05-04T14:59:25.914Z,27.81
2023-05-04T15:00:26.077Z,28.07
2023-05-04T15:01:26.056Z,27.94
2023-05-04T15:02:26.043Z,28.13
2023-05-04T15:03:27.252Z,28.19
2023-05-04T15:04:26.048Z,28.22
2023-05-04T15:05:27.118Z,28.39
2023-05-04T15:06:27.197Z,28.25
2023-05-04T15:07:26.350Z,28.14
2023-05-04T15:08:27.254Z,28.13
2023-05-04T15:09:27.311Z,28.25
2023-05-04T15:10:26.414Z,28.22
2023-05-04T15:11:26.429Z,28.30
2023-05-04T15:12:27.509Z,28.34
2023-05-04T15:13:27.457Z,28.37
2023-05-04T15:14:27.584Z,28.56
2023-05-04T15:15:26.516Z,28.42
2023-05-04T15:16:27.648Z,28.56
2023-05-04T15:17:27.585Z,28.47
2023-05-04T15:18:27.579Z,28.56
2023-05-04T15:19:26.669Z,28.78
2023-05-04T15:20:26.685Z,28.74
2023-05-04T15:21:26.612Z,28.85
2023-05-04T15:22:26.655Z,28.71
2023-05-04T15:23:27.684Z,28.68
2023-05-04T15:24:27.698Z,28.90
2023-05-04T15:25:26.793Z,28.96
2023-05-04T15:26:26.765Z,29.10
2023-05-04T15:27:27.804Z,28.98
2023-05-04T15:28:26.857Z,28.99
2023-05-04T15:29:26.843Z,29.06
